Eastern Galaxy — DUCH — position and weather

sailwx.info

Track history (hours):
 
Tides and Currents Weather Stations Pressure Air Temp Water Temp Dewpoint Dewpoint Depression Visibility Wind Speed Wind Dir Waves Ship Positions

Eastern Galaxy

Last reported at 2015-Aug-26 13:26 UTC. Time now 2015-Sep-03 10:52 UTC.
Position N 33°53' E 134°55'.

Length 100 m; draft 6.5 m.

Type: Cargo ship. MMSI: 548829000.

Date/timePositionNaut miles runAvg speedWind from/ knotsBaromVisibWave heightAir tempDewpointWater temp
2015-Aug-26 13:26N 33°53' E 134°55'9 9.7
2015-Aug-26 12:33N 34°02' E 134°57'1111.3
2015-Aug-26 11:33N 34°13' E 134°58'10 9.6
2015-Aug-26 10:33N 34°23' E 135°01'1111.3
2015-Aug-26 09:33N 34°30' E 135°11'1111.1
2015-Aug-26 08:33N 34°37' E 135°21'4 4.0
2015-Aug-26 07:31N 34°39' E 135°26'0 0.0
2015-Aug-26 06:31N 34°39' E 135°26'0 0.0
2015-Aug-26 05:31N 34°39' E 135°26'0 0.0
2015-Aug-26 04:31N 34°39' E 135°26'0 0.0
2015-Aug-26 03:31N 34°39' E 135°26'0 0.0
2015-Aug-26 02:31N 34°39' E 135°26'0 0.0
2015-Aug-26 01:31N 34°39' E 135°26'0 0.0
2015-Aug-26 00:31N 34°39' E 135°26'0 0.0
2015-Aug-25 23:31N 34°39' E 135°26'0 0.0
2015-Aug-25 22:31N 34°39' E 135°26'0 0.0
2015-Aug-25 21:25N 34°39' E 135°26'0 0.0
2015-Aug-25 20:25N 34°39' E 135°26'0 0.0
2015-Aug-25 19:31N 34°39' E 135°26'0 0.0
2015-Aug-25 18:25N 34°39' E 135°26'0 0.0
2015-Aug-25 17:31N 34°39' E 135°26'0 0.0
2015-Aug-25 16:31N 34°39' E 135°26'0 0.0
2015-Aug-25 15:31N 34°39' E 135°26'0 0.0
2015-Aug-25 14:25N 34°39' E 135°26'0 0.0
2015-Aug-25 13:31N 34°39' E 135°26'0 0.0
2015-Aug-25 12:31N 34°39' E 135°26'0 0.0
2015-Aug-25 11:31N 34°39' E 135°26'0 0.0
2015-Aug-25 10:25N 34°39' E 135°26'0 0.0
2015-Aug-25 09:31N 34°39' E 135°26'0 0.0
2015-Aug-25 08:31N 34°39' E 135°26'0 0.0
2015-Aug-25 07:31N 34°39' E 135°26'0 0.0
2015-Aug-25 06:31N 34°39' E 135°26'0 0.0
2015-Aug-25 05:31N 34°39' E 135°26'0 0.0
2015-Aug-25 04:13N 34°39' E 135°26'0 0.1
2015-Aug-25 03:25N 34°39' E 135°26'0 0.0
2015-Aug-25 02:25N 34°39' E 135°26'0 0.0
2015-Aug-25 01:25N 34°39' E 135°26'0 0.1
2015-Aug-25 00:33N 34°39' E 135°26'2 1.6
2015-Aug-24 23:33N 34°39' E 135°24'5 5.4
2015-Aug-24 22:33N 34°36' E 135°18'9 9.1
2015-Aug-24 21:33N 34°29' E 135°11'1111.1
2015-Aug-24 20:33N 34°21' E 135°02'1111.3
2015-Aug-24 19:33N 34°10' E 134°59'1212.0
2015-Aug-24 18:31N 33°57' E 134°59'227 6.4
2015-Aug-23 07:15N 35°01' E 139°23'3 3.0
2015-Aug-23 06:16N 35°02' E 139°19'3 0.7
2015-Aug-23 02:30N 35°03' E 139°22'5 1.0
2015-Aug-22 22:08N 35°06' E 139°18'1 0.5
2015-Aug-22 19:30N 35°06' E 139°19'1 1.1
2015-Aug-22 18:30N 35°06' E 139°21'1 0.9
2015-Aug-22 17:30N 35°05' E 139°22'3 1.7
2015-Aug-22 15:29N 35°02' E 139°23'7 7.5
2015-Aug-22 14:33N 34°59' E 139°30'1111.2
2015-Aug-22 13:33N 35°05' E 139°41'1110.8
2015-Aug-22 12:34N 35°15' E 139°47'1010.4
2015-Aug-22 11:33N 35°25' E 139°42'3 2.6
2015-Aug-22 10:31N 35°27' E 139°41'0 0.0
2015-Aug-22 09:31N 35°27' E 139°41'0 0.0
2015-Aug-22 08:31N 35°27' E 139°41'0 0.0
2015-Aug-22 07:31N 35°27' E 139°41'0 0.0
2015-Aug-22 06:31N 35°27' E 139°41'0 0.0
2015-Aug-22 05:31N 35°27' E 139°41'0 0.0
2015-Aug-22 04:31N 35°27' E 139°41'0 0.0
2015-Aug-22 03:31N 35°27' E 139°41'0 0.0
2015-Aug-22 02:31N 35°27' E 139°41'0 0.0
2015-Aug-22 01:31N 35°27' E 139°41'0 0.0
2015-Aug-22 00:31N 35°27' E 139°41'0 0.0
2015-Aug-21 23:31N 35°27' E 139°41'0 0.1
2015-Aug-21 22:34N 35°27' E 139°41'2 1.6
2015-Aug-21 21:31N 35°26' E 139°42'0 0.0
2015-Aug-21 20:31N 35°26' E 139°42'0 0.0
2015-Aug-21 19:31N 35°26' E 139°42'0 0.0
2015-Aug-21 18:31N 35°26' E 139°42'0 0.0
2015-Aug-21 17:31N 35°26' E 139°42'0 0.0
2015-Aug-21 16:31N 35°26' E 139°42'0 0.0
2015-Aug-21 15:31N 35°26' E 139°42'0 0.0
2015-Aug-21 14:31N 35°26' E 139°42'0 0.0
2015-Aug-21 13:22N 35°26' E 139°42'0 0.1
2015-Aug-21 12:31N 35°26' E 139°42'3 3.0
2015-Aug-21 11:34N 35°23' E 139°43'1110.9
2015-Aug-21 10:34N 35°13' E 139°47'1111.0
2015-Aug-21 09:33N 35°03' E 139°41'1412.7
2015-Aug-21 08:29N 34°55' E 139°28'  
Track history (hours):
 
Tides and Currents Weather Stations Pressure Air Temp Water Temp Dewpoint Dewpoint Depression Visibility Wind Speed Wind Dir Waves Ship Positions

Eastern Galaxy

Last reported at 2015-Aug-26 13:26 UTC. Time now 2015-Sep-03 10:52 UTC.
Position N 33°53' E 134°55'.

Length 100 m; draft 6.5 m.

Type: Cargo ship. MMSI: 548829000.

Date/timePositionNaut miles runAvg speedWind from/ knotsBaromVisibWave heightAir tempDewpointWater temp
2015-Aug-26 13:26N 33°53' E 134°55'9 9.7
2015-Aug-26 12:33N 34°02' E 134°57'1111.3
2015-Aug-26 11:33N 34°13' E 134°58'10 9.6
2015-Aug-26 10:33N 34°23' E 135°01'1111.3
2015-Aug-26 09:33N 34°30' E 135°11'1111.1
2015-Aug-26 08:33N 34°37' E 135°21'4 4.0
2015-Aug-26 07:31N 34°39' E 135°26'0 0.0
2015-Aug-26 06:31N 34°39' E 135°26'0 0.0
2015-Aug-26 05:31N 34°39' E 135°26'0 0.0
2015-Aug-26 04:31N 34°39' E 135°26'0 0.0
2015-Aug-26 03:31N 34°39' E 135°26'0 0.0
2015-Aug-26 02:31N 34°39' E 135°26'0 0.0
2015-Aug-26 01:31N 34°39' E 135°26'0 0.0
2015-Aug-26 00:31N 34°39' E 135°26'0 0.0
2015-Aug-25 23:31N 34°39' E 135°26'0 0.0
2015-Aug-25 22:31N 34°39' E 135°26'0 0.0
2015-Aug-25 21:25N 34°39' E 135°26'0 0.0
2015-Aug-25 20:25N 34°39' E 135°26'0 0.0
2015-Aug-25 19:31N 34°39' E 135°26'0 0.0
2015-Aug-25 18:25N 34°39' E 135°26'0 0.0
2015-Aug-25 17:31N 34°39' E 135°26'0 0.0
2015-Aug-25 16:31N 34°39' E 135°26'0 0.0
2015-Aug-25 15:31N 34°39' E 135°26'0 0.0
2015-Aug-25 14:25N 34°39' E 135°26'0 0.0
2015-Aug-25 13:31N 34°39' E 135°26'0 0.0
2015-Aug-25 12:31N 34°39' E 135°26'0 0.0
2015-Aug-25 11:31N 34°39' E 135°26'0 0.0
2015-Aug-25 10:25N 34°39' E 135°26'0 0.0
2015-Aug-25 09:31N 34°39' E 135°26'0 0.0
2015-Aug-25 08:31N 34°39' E 135°26'0 0.0
2015-Aug-25 07:31N 34°39' E 135°26'0 0.0
2015-Aug-25 06:31N 34°39' E 135°26'0 0.0
2015-Aug-25 05:31N 34°39' E 135°26'0 0.0
2015-Aug-25 04:13N 34°39' E 135°26'0 0.1
2015-Aug-25 03:25N 34°39' E 135°26'0 0.0
2015-Aug-25 02:25N 34°39' E 135°26'0 0.0
2015-Aug-25 01:25N 34°39' E 135°26'0 0.1
2015-Aug-25 00:33N 34°39' E 135°26'2 1.6
2015-Aug-24 23:33N 34°39' E 135°24'5 5.4
2015-Aug-24 22:33N 34°36' E 135°18'9 9.1
2015-Aug-24 21:33N 34°29' E 135°11'1111.1
2015-Aug-24 20:33N 34°21' E 135°02'1111.3
2015-Aug-24 19:33N 34°10' E 134°59'1212.0
2015-Aug-24 18:31N 33°57' E 134°59'227 6.4
2015-Aug-23 07:15N 35°01' E 139°23'3 3.0
2015-Aug-23 06:16N 35°02' E 139°19'3 0.7
2015-Aug-23 02:30N 35°03' E 139°22'5 1.0
2015-Aug-22 22:08N 35°06' E 139°18'1 0.5
2015-Aug-22 19:30N 35°06' E 139°19'1 1.1
2015-Aug-22 18:30N 35°06' E 139°21'1 0.9
2015-Aug-22 17:30N 35°05' E 139°22'3 1.7
2015-Aug-22 15:29N 35°02' E 139°23'7 7.5
2015-Aug-22 14:33N 34°59' E 139°30'1111.2
2015-Aug-22 13:33N 35°05' E 139°41'1110.8
2015-Aug-22 12:34N 35°15' E 139°47'1010.4
2015-Aug-22 11:33N 35°25' E 139°42'3 2.6
2015-Aug-22 10:31N 35°27' E 139°41'0 0.0
2015-Aug-22 09:31N 35°27' E 139°41'0 0.0
2015-Aug-22 08:31N 35°27' E 139°41'0 0.0
2015-Aug-22 07:31N 35°27' E 139°41'0 0.0
2015-Aug-22 06:31N 35°27' E 139°41'0 0.0
2015-Aug-22 05:31N 35°27' E 139°41'0 0.0
2015-Aug-22 04:31N 35°27' E 139°41'0 0.0
2015-Aug-22 03:31N 35°27' E 139°41'0 0.0
2015-Aug-22 02:31N 35°27' E 139°41'0 0.0
2015-Aug-22 01:31N 35°27' E 139°41'0 0.0
2015-Aug-22 00:31N 35°27' E 139°41'0 0.0
2015-Aug-21 23:31N 35°27' E 139°41'0 0.1
2015-Aug-21 22:34N 35°27' E 139°41'2 1.6
2015-Aug-21 21:31N 35°26' E 139°42'0 0.0
2015-Aug-21 20:31N 35°26' E 139°42'0 0.0
2015-Aug-21 19:31N 35°26' E 139°42'0 0.0
2015-Aug-21 18:31N 35°26' E 139°42'0 0.0
2015-Aug-21 17:31N 35°26' E 139°42'0 0.0
2015-Aug-21 16:31N 35°26' E 139°42'0 0.0
2015-Aug-21 15:31N 35°26' E 139°42'0 0.0
2015-Aug-21 14:31N 35°26' E 139°42'0 0.0
2015-Aug-21 13:22N 35°26' E 139°42'0 0.1
2015-Aug-21 12:31N 35°26' E 139°42'3 3.0
2015-Aug-21 11:34N 35°23' E 139°43'1110.9
2015-Aug-21 10:34N 35°13' E 139°47'1111.0
2015-Aug-21 09:33N 35°03' E 139°41'1412.7
2015-Aug-21 08:29N 34°55' E 139°28'  

Dump ship's entire track history